createdAt,value
2022-08-18T00:01:16.849Z,99753.63
2022-08-18T00:03:55.569Z,99747.06
2022-08-18T00:06:30.060Z,99737.75
2022-08-18T00:08:59.990Z,99729.66
2022-08-18T00:11:28.791Z,99733.50
2022-08-18T00:14:13.813Z,99723.84
2022-08-18T00:16:51.919Z,99727.56
2022-08-18T00:19:20.112Z,99724.69
2022-08-18T00:22:15.170Z,99724.56
2022-08-18T00:24:47.458Z,99724.00
2022-08-18T00:27:23.938Z,99724.00
2022-08-18T00:29:59.415Z,99731.72
2022-08-18T00:32:30.139Z,99729.16
2022-08-18T00:34:58.506Z,99719.94
2022-08-18T00:37:28.084Z,99721.66
2022-08-18T00:39:56.146Z,99737.16
2022-08-18T00:42:27.353Z,99731.06
2022-08-18T00:45:02.476Z,99735.75
2022-08-18T00:47:33.123Z,99737.47
2022-08-18T00:50:15.298Z,99735.66
2022-08-18T00:52:49.040Z,99734.28
2022-08-18T00:55:19.523Z,99737.56
2022-08-18T00:57:52.062Z,99736.88
2022-08-18T01:00:20.497Z,99744.97
2022-08-18T01:02:55.559Z,99736.88
2022-08-18T01:05:30.433Z,99739.41
2022-08-18T01:07:59.990Z,99736.88
2022-08-18T01:10:28.250Z,99743.41
2022-08-18T01:12:58.506Z,99739.03
2022-08-18T01:15:30.139Z,99747.13
2022-08-18T01:18:17.854Z,99747.97
2022-08-18T01:21:13.993Z,99753.50
2022-08-18T01:23:43.747Z,99740.47
2022-08-18T01:26:11.546Z,99751.25
2022-08-18T01:28:42.320Z,99758.63
2022-08-18T01:31:12.133Z,99755.41
2022-08-18T01:33:44.892Z,99754.16
2022-08-18T01:36:18.017Z,99746.34
2022-08-18T01:38:50.277Z,99752.59
2022-08-18T01:41:26.908Z,99750.75
2022-08-18T01:43:56.513Z,99757.13
2022-08-18T01:46:24.687Z,99761.13
2022-08-18T01:48:53.692Z,99762.44
2022-08-18T01:51:39.615Z,99756.34
2022-08-18T01:54:14.067Z,99760.75
2022-08-18T01:56:43.386Z,99760.31
2022-08-18T01:59:14.823Z,99757.88
2022-08-18T02:01:48.263Z,99758.88
2022-08-18T02:04:37.063Z,99760.19
2022-08-18T02:07:09.129Z,99758.47
2022-08-18T02:09:41.094Z,99757.75
2022-08-18T02:12:09.570Z,99760.31
2022-08-18T02:14:38.592Z,99758.75
2022-08-18T02:17:08.957Z,99759.06
2022-08-18T02:19:39.489Z,99748.28
2022-08-18T02:22:09.358Z,99753.97
2022-08-18T02:24:39.368Z,99759.50
2022-08-18T02:27:08.305Z,99758.66
2022-08-18T02:29:37.366Z,99757.81
2022-08-18T02:32:06.944Z,99760.50
2022-08-18T02:34:35.318Z,99760.38
2022-08-18T02:37:04.441Z,99760.63
2022-08-18T02:39:35.949Z,99773.25
2022-08-18T02:42:05.896Z,99770.88
2022-08-18T02:44:34.112Z,99770.31
2022-08-18T02:47:02.963Z,99762.94
2022-08-18T02:49:31.108Z,99760.09
2022-08-18T02:51:59.622Z,99768.47
2022-08-18T02:54:27.749Z,99772.00
2022-08-18T02:56:57.172Z,99776.00
2022-08-18T02:59:28.475Z,99769.03
2022-08-18T03:02:00.346Z,99773.88
2022-08-18T03:04:31.427Z,99779.69
2022-08-18T03:07:01.455Z,99776.16
2022-08-18T03:09:30.535Z,99775.31
2022-08-18T03:11:59.265Z,99775.16
2022-08-18T03:14:29.459Z,99771.75
2022-08-18T03:16:57.825Z,99779.00
2022-08-18T03:19:28.708Z,99779.00
2022-08-18T03:21:59.331Z,99785.63
2022-08-18T03:24:31.524Z,99795.00
2022-08-18T03:27:01.869Z,99795.31
2022-08-18T03:29:32.915Z,99805.66
2022-08-18T03:32:02.272Z,99802.41
2022-08-18T03:34:32.334Z,99806.50
2022-08-18T03:37:00.928Z,99798.72
2022-08-18T03:39:29.772Z,99790.63
2022-08-18T03:42:01.673Z,99794.31
2022-08-18T03:44:33.876Z,99785.38
2022-08-18T03:47:03.151Z,99791.91
2022-08-18T03:49:32.416Z,99791.91
2022-08-18T03:52:01.476Z,99779.44
2022-08-18T03:54:29.875Z,99781.69
2022-08-18T03:56:58.555Z,99788.38
2022-08-18T03:59:27.736Z,99791.34
2022-08-18T04:01:57.347Z,99783.94
2022-08-18T04:04:28.328Z,99786.94
2022-08-18T04:07:00.625Z,99785.38
2022-08-18T04:09:31.954Z,99783.84
2022-08-18T04:12:06.021Z,99790.22
2022-08-18T04:14:35.040Z,99796.31
2022-08-18T04:17:04.681Z,99789.22
2022-08-18T04:19:37.475Z,99792.63
2022-08-18T04:22:06.831Z,99795.31
2022-08-18T04:24:35.854Z,99791.47
2022-08-18T04:27:05.902Z,99781.25
2022-08-18T04:29:34.138Z,99790.22
2022-08-18T04:32:05.152Z,99795.88
2022-08-18T04:34:34.127Z,99794.72
2022-08-18T04:37:02.953Z,99796.41
2022-08-18T04:39:31.627Z,99788.09
2022-08-18T04:42:01.638Z,99793.72
2022-08-18T04:44:29.762Z,99794.88
2022-08-18T04:46:57.985Z,99794.97
2022-08-18T04:49:27.948Z,99796.25
2022-08-18T04:52:27.062Z,99801.34
2022-08-18T04:55:03.141Z,99796.25
2022-08-18T04:57:34.746Z,99797.09
2022-08-18T05:00:05.616Z,99801.19
2022-08-18T05:02:33.921Z,99799.91
2022-08-18T05:05:04.237Z,99795.63
2022-08-18T05:07:32.758Z,99796.91
2022-08-18T05:10:00.854Z,99791.25
2022-08-18T05:12:29.564Z,99796.03
2022-08-18T05:14:57.979Z,99796.47
2022-08-18T05:17:29.131Z,99789.22
2022-08-18T05:20:00.764Z,99782.69
2022-08-18T05:22:32.085Z,99789.59
2022-08-18T05:25:01.151Z,99790.66
2022-08-18T05:27:34.059Z,99784.53
2022-08-18T05:30:02.494Z,99783.75
2022-08-18T05:32:48.198Z,99789.41
2022-08-18T05:35:23.269Z,99791.38
2022-08-18T05:38:22.541Z,99798.56
2022-08-18T05:41:07.567Z,99783.47
2022-08-18T05:43:51.982Z,99795.06
2022-08-18T05:46:25.908Z,99799.00
2022-08-18T05:48:54.060Z,99803.50
2022-08-18T05:51:34.229Z,99809.34
2022-08-18T05:54:25.515Z,99807.44
2022-08-18T05:56:57.265Z,99802.34
2022-08-18T05:59:28.665Z,99800.19
2022-08-18T06:02:07.958Z,99803.81
2022-08-18T06:04:44.026Z,99805.19
2022-08-18T06:07:17.182Z,99807.69
2022-08-18T06:09:52.604Z,99812.16
2022-08-18T06:12:30.026Z,99814.13
2022-08-18T06:15:06.643Z,99807.66
2022-08-18T06:17:58.980Z,99814.41
2022-08-18T06:20:33.771Z,99818.13
2022-08-18T06:23:18.734Z,99816.13
2022-08-18T06:26:02.977Z,99820.38
2022-08-18T06:28:42.038Z,99818.88
2022-08-18T06:31:17.742Z,99812.81
2022-08-18T06:33:58.017Z,99815.19
2022-08-18T06:36:38.605Z,99821.81
2022-08-18T06:39:18.517Z,99813.91
2022-08-18T06:41:53.727Z,99821.03
2022-08-18T06:44:31.520Z,99818.53
2022-08-18T06:47:06.490Z,99811.78
2022-08-18T06:49:40.913Z,99810.63
2022-08-18T06:52:29.185Z,99801.53
2022-08-18T06:54:59.765Z,99813.03
2022-08-18T06:57:34.622Z,99806.75
2022-08-18T07:00:10.058Z,99800.53
2022-08-18T07:02:50.920Z,99799.66
2022-08-18T07:05:25.249Z,99789.53
2022-08-18T07:08:14.541Z,99799.19
2022-08-18T07:10:45.119Z,99792.81
2022-08-18T07:13:21.592Z,99791.44
2022-08-18T07:15:50.914Z,99790.59
2022-08-18T07:18:25.431Z,99788.22
2022-08-18T07:20:56.018Z,99796.34
2022-08-18T07:23:30.527Z,99792.09
2022-08-18T07:26:09.732Z,99794.44
2022-08-18T07:28:41.922Z,99799.03
2022-08-18T07:31:17.297Z,99796.31
2022-08-18T07:33:52.367Z,99801.06
2022-08-18T07:36:24.418Z,99794.38
2022-08-18T07:38:58.148Z,99792.13
2022-08-18T07:41:31.619Z,99792.97
2022-08-18T07:44:13.804Z,99797.19
2022-08-18T07:46:51.680Z,99800.25
2022-08-18T07:49:22.753Z,99787.97
2022-08-18T07:51:58.037Z,99786.75
2022-08-18T07:54:50.969Z,99792.53
2022-08-18T07:57:30.793Z,99793.75
2022-08-18T08:00:20.607Z,99800.50
2022-08-18T08:03:01.916Z,99807.59
2022-08-18T08:05:43.611Z,99810.38
2022-08-18T08:08:25.406Z,99818.50
2022-08-18T08:11:06.197Z,99823.56
2022-08-18T08:13:55.095Z,99822.69
2022-08-18T08:16:36.526Z,99832.63
2022-08-18T08:19:16.646Z,99836.00
2022-08-18T08:21:53.521Z,99829.69
2022-08-18T08:24:33.812Z,99829.31
2022-08-18T08:27:10.147Z,99835.16
2022-08-18T08:29:46.205Z,99833.13
2022-08-18T08:32:22.199Z,99835.25
2022-08-18T08:34:55.580Z,99830.63
2022-08-18T08:37:41.854Z,99833.53
2022-08-18T08:40:17.209Z,99825.72
2022-08-18T08:42:52.615Z,99819.53
2022-08-18T08:45:25.001Z,99817.88
2022-08-18T08:48:09.009Z,99814.69
2022-08-18T08:50:46.503Z,99814.03
2022-08-18T08:53:24.625Z,99823.41
2022-08-18T08:56:02.201Z,99813.25
2022-08-18T08:58:35.958Z,99815.94
2022-08-18T09:01:05.061Z,99817.06
2022-08-18T09:03:44.362Z,99809.81
2022-08-18T09:06:28.166Z,99809.78
2022-08-18T09:09:34.596Z,99799.94
2022-08-18T09:12:24.838Z,99799.63
2022-08-18T09:15:19.319Z,99802.13
2022-08-18T09:18:22.326Z,99791.97
2022-08-18T09:20:59.865Z,99777.84
2022-08-18T09:23:35.144Z,99787.94
2022-08-18T09:26:25.335Z,99788.59
2022-08-18T09:28:58.380Z,99790.03
2022-08-18T09:31:27.525Z,99778.53
2022-08-18T09:34:33.466Z,99782.19
2022-08-18T09:37:12.866Z,99777.47
2022-08-18T09:40:11.041Z,99783.94
2022-08-18T09:42:49.888Z,99780.16
2022-08-18T09:45:57.614Z,99781.25
2022-08-18T09:48:32.708Z,99777.28
2022-08-18T09:51:24.742Z,99763.44
2022-08-18T09:54:21.136Z,99760.81
2022-08-18T09:57:19.241Z,99747.44
2022-08-18T10:00:12.736Z,99737.63
2022-08-18T10:03:26.072Z,99738.78
2022-08-18T10:06:06.437Z,99730.66
2022-08-18T10:09:37.967Z,99725.69
2022-08-18T10:12:42.439Z,99731.81
2022-08-18T10:15:39.210Z,99734.34
2022-08-18T10:18:43.923Z,99730.13
2022-08-18T10:21:21.070Z,99726.16
2022-08-18T10:24:08.535Z,99728.09
2022-08-18T10:30:01.714Z,99733.25
2022-08-18T10:32:54.749Z,99726.72
2022-08-18T10:36:07.333Z,99732.38
2022-08-18T10:38:48.904Z,99722.94
2022-08-18T10:41:31.491Z,99728.66
2022-08-18T10:44:20.899Z,99719.38
2022-08-18T10:46:53.310Z,99719.63
2022-08-18T10:49:26.406Z,99718.53
2022-08-18T10:52:47.222Z,99711.81
2022-08-18T10:58:47.828Z,99708.63
2022-08-18T11:01:39.370Z,99707.81
2022-08-18T11:07:15.847Z,99719.34
2022-08-18T11:09:57.271Z,99710.44
2022-08-18T11:12:51.730Z,99700.50
2022-08-18T11:15:25.662Z,99695.13
2022-08-18T11:18:06.349Z,99701.78
2022-08-18T11:20:39.581Z,99699.91
2022-08-18T11:23:15.737Z,99700.09
2022-08-18T11:25:44.996Z,99692.69
2022-08-18T11:28:18.487Z,99692.97
2022-08-18T11:30:49.286Z,99680.72
2022-08-18T11:33:23.010Z,99673.28
2022-08-18T11:35:57.858Z,99666.41
2022-08-18T11:38:29.431Z,99670.53
2022-08-18T11:41:14.296Z,99660.28
2022-08-18T11:43:47.672Z,99664.97
2022-08-18T11:46:29.788Z,99658.75
2022-08-18T11:49:04.470Z,99652.06
2022-08-18T11:51:35.048Z,99652.72
2022-08-18T11:54:21.788Z,99648.50
2022-08-18T11:56:51.716Z,99647.19
2022-08-18T11:59:53.818Z,99642.50
2022-08-18T12:02:22.918Z,99650.13
2022-08-18T12:04:57.560Z,99639.53
2022-08-18T12:07:30.990Z,99640.44
2022-08-18T12:10:21.184Z,99642.41
2022-08-18T12:12:57.631Z,99645.00
2022-08-18T12:18:28.977Z,99629.16
2022-08-18T12:21:03.270Z,99632.31
2022-08-18T12:23:39.174Z,99618.91
2022-08-18T12:29:08.709Z,99619.00
2022-08-18T12:31:42.781Z,99606.53
2022-08-18T12:34:18.080Z,99606.00
2022-08-18T12:36:58.489Z,99606.28
2022-08-18T12:39:26.828Z,99600.91
2022-08-18T12:41:54.994Z,99603.16
2022-08-18T12:44:23.307Z,99610.72
2022-08-18T12:46:56.126Z,99614.00
2022-08-18T12:49:26.564Z,99614.75
2022-08-18T12:51:58.435Z,99622.53
2022-08-18T12:54:26.813Z,99630.09
2022-08-18T12:56:57.698Z,99630.59
2022-08-18T12:59:26.410Z,99637.53
2022-08-18T13:02:01.603Z,99641.47
2022-08-18T13:04:29.865Z,99635.09
2022-08-18T13:07:05.824Z,99636.97
2022-08-18T13:09:52.530Z,99637.13
2022-08-18T13:12:21.887Z,99631.50
2022-08-18T13:14:51.302Z,99627.38
2022-08-18T13:17:32.495Z,99633.84
2022-08-18T13:20:03.863Z,99644.25
2022-08-18T13:22:34.023Z,99643.69
2022-08-18T13:25:04.028Z,99641.91
2022-08-18T13:27:35.822Z,99647.34
2022-08-18T13:30:16.614Z,99644.63
2022-08-18T13:33:00.659Z,99648.31
2022-08-18T13:35:38.396Z,99647.88
2022-08-18T13:38:20.833Z,99631.38
2022-08-18T13:40:51.038Z,99633.84
2022-08-18T13:43:23.579Z,99632.31
2022-08-18T13:45:52.962Z,99640.91
2022-08-18T13:48:26.231Z,99635.69
2022-08-18T13:50:56.773Z,99642.28
2022-08-18T13:53:28.729Z,99634.94
2022-08-18T13:55:59.351Z,99647.22
2022-08-18T13:58:30.504Z,99645.81
2022-08-18T14:01:22.537Z,99645.41
2022-08-18T14:03:50.149Z,99644.50
2022-08-18T14:06:22.609Z,99636.41
2022-08-18T14:08:54.913Z,99638.41
2022-08-18T14:11:32.862Z,99647.91
2022-08-18T14:14:02.513Z,99644.81
2022-08-18T14:16:31.249Z,99644.72
2022-08-18T14:19:22.920Z,99655.25
2022-08-18T14:22:11.600Z,99653.16
2022-08-18T14:25:02.855Z,99647.91
2022-08-18T14:27:35.101Z,99648.81
2022-08-18T14:30:06.828Z,99661.56
2022-08-18T14:32:36.362Z,99658.22
2022-08-18T14:36:04.143Z,99659.13
2022-08-18T14:37:56.256Z,99659.22
2022-08-18T14:40:26.772Z,99659.38
2022-08-18T14:42:55.739Z,99658.44
2022-08-18T14:45:31.791Z,99658.28
2022-08-18T14:48:07.537Z,99664.44
2022-08-18T14:50:44.855Z,99658.78
2022-08-18T14:53:20.218Z,99661.22
2022-08-18T14:55:52.533Z,99664.00
2022-08-18T14:58:25.315Z,99651.81
2022-08-18T15:00:56.295Z,99652.25
2022-08-18T15:03:31.203Z,99649.50
2022-08-18T15:06:00.747Z,99645.91
2022-08-18T15:08:35.817Z,99642.63
2022-08-18T15:11:11.860Z,99640.50
2022-08-18T15:13:45.103Z,99632.97
2022-08-18T15:16:14.209Z,99634.44
2022-08-18T15:18:42.631Z,99631.78
2022-08-18T15:21:38.504Z,99634.00
2022-08-18T15:24:25.911Z,99640.81
2022-08-18T15:27:05.447Z,99639.97
2022-08-18T15:29:36.950Z,99647.00
2022-08-18T15:32:10.486Z,99643.13
2022-08-18T15:34:46.050Z,99643.47
2022-08-18T15:37:19.533Z,99643.75
2022-08-18T15:39:55.438Z,99651.13
2022-08-18T15:42:25.723Z,99650.25
2022-08-18T15:44:55.546Z,99652.31
2022-08-18T15:47:25.461Z,99659.75
2022-08-18T15:49:57.282Z,99650.88
2022-08-18T15:52:26.311Z,99643.63
2022-08-18T15:54:58.333Z,99641.16
2022-08-18T15:57:39.365Z,99643.19
2022-08-18T16:00:12.070Z,99629.28
2022-08-18T16:02:44.595Z,99626.09
2022-08-18T16:05:17.186Z,99626.63
2022-08-18T16:07:46.054Z,99629.44
2022-08-18T16:10:15.416Z,99630.75
2022-08-18T16:12:46.055Z,99627.22
2022-08-18T16:15:19.846Z,99623.41
2022-08-18T16:17:52.049Z,99620.41
2022-08-18T16:20:21.313Z,99628.81
2022-08-18T16:22:49.748Z,99621.50
2022-08-18T16:25:18.509Z,99626.06
2022-08-18T16:27:48.908Z,99621.38
2022-08-18T16:30:19.689Z,99619.16
2022-08-18T16:32:47.913Z,99624.94
2022-08-18T16:35:18.733Z,99626.03
2022-08-18T16:37:47.753Z,99625.47
2022-08-18T16:40:16.299Z,99623.09
2022-08-18T16:42:44.705Z,99622.34
2022-08-18T16:45:14.971Z,99619.41
2022-08-18T16:47:43.037Z,99615.97
2022-08-18T16:50:14.486Z,99614.91
2022-08-18T16:52:43.191Z,99621.00
2022-08-18T16:55:13.614Z,99606.06
2022-08-18T16:58:00.475Z,99594.69
2022-08-18T17:00:54.623Z,99603.28
2022-08-18T17:03:41.480Z,99601.94
2022-08-18T17:06:12.196Z,99597.13
2022-08-18T17:08:40.868Z,99590.19
2022-08-18T17:11:13.964Z,99580.75
2022-08-18T17:13:43.296Z,99583.53
2022-08-18T17:16:13.694Z,99584.53
2022-08-18T17:18:42.864Z,99582.53
2022-08-18T17:21:13.237Z,99581.06
2022-08-18T17:23:42.529Z,99570.25
2022-08-18T17:26:18.530Z,99572.31
2022-08-18T17:28:52.601Z,99563.06
2022-08-18T17:31:24.646Z,99558.50
2022-08-18T17:33:56.898Z,99553.09
2022-08-18T17:36:34.874Z,99547.75
2022-08-18T17:39:05.447Z,99528.09
2022-08-18T17:41:56.121Z,99521.44
2022-08-18T17:44:31.173Z,99522.66
2022-08-18T17:47:03.969Z,99526.50
2022-08-18T17:50:27.137Z,99532.53
2022-08-18T17:53:05.325Z,99541.97
2022-08-18T17:55:40.300Z,99555.13
2022-08-18T17:58:16.149Z,99555.44
2022-08-18T18:00:45.468Z,99561.00
2022-08-18T18:03:15.118Z,99563.78
2022-08-18T18:05:56.449Z,99560.47
2022-08-18T18:08:55.036Z,99556.34
2022-08-18T18:11:35.119Z,99565.66
2022-08-18T18:14:29.215Z,99570.09
2022-08-18T18:17:02.509Z,99579.00
2022-08-18T18:19:33.485Z,99569.81
2022-08-18T18:22:08.362Z,99571.97
2022-08-18T18:24:39.456Z,99581.03
2022-08-18T18:27:26.548Z,99579.44
2022-08-18T18:29:58.081Z,99584.50
2022-08-18T18:32:30.425Z,99585.56
2022-08-18T18:35:14.141Z,99597.34
2022-08-18T18:37:50.108Z,99599.22
2022-08-18T18:40:35.019Z,99598.13
2022-08-18T18:43:22.217Z,99603.81
2022-08-18T18:46:18.362Z,99603.59
2022-08-18T18:48:56.778Z,99604.00
2022-08-18T18:51:33.537Z,99600.56
2022-08-18T18:54:15.200Z,99592.16
2022-08-18T18:56:52.888Z,99599.03
2022-08-18T18:59:35.585Z,99600.66
2022-08-18T19:02:34.160Z,99602.75
2022-08-18T19:05:16.674Z,99594.38
2022-08-18T19:07:57.990Z,99592.63
2022-08-18T19:10:34.916Z,99593.25
2022-08-18T19:13:32.416Z,99593.47
2022-08-18T19:16:05.028Z,99593.47
2022-08-18T19:18:35.738Z,99595.72
2022-08-18T19:22:02.652Z,99596.56
2022-08-18T19:24:06.844Z,99596.41
2022-08-18T19:26:41.279Z,99586.06
2022-08-18T19:29:20.930Z,99599.50
2022-08-18T19:31:53.716Z,99592.16
2022-08-18T19:34:30.059Z,99588.16
2022-08-18T19:37:05.735Z,99587.28
2022-08-18T19:39:43.720Z,99588.72
2022-08-18T19:42:19.552Z,99589.38
2022-08-18T19:45:14.972Z,99595.63
2022-08-18T19:47:50.110Z,99591.88
2022-08-18T19:50:28.886Z,99592.09
2022-08-18T19:53:21.980Z,99598.38
2022-08-18T19:56:11.769Z,99591.25
2022-08-18T19:59:18.676Z,99588.31
2022-08-18T20:02:02.817Z,99597.97
2022-08-18T20:04:46.990Z,99593.09
2022-08-18T20:07:42.053Z,99595.97
2022-08-18T20:10:44.230Z,99603.09
2022-08-18T20:13:28.165Z,99604.09
2022-08-18T20:16:14.116Z,99601.13
2022-08-18T20:18:44.517Z,99605.53
2022-08-18T20:21:41.714Z,99601.28
2022-08-18T20:24:41.686Z,99596.63
2022-08-18T20:27:23.894Z,99596.00
2022-08-18T20:30:21.852Z,99595.09
2022-08-18T20:33:14.411Z,99584.78
2022-08-18T20:35:47.830Z,99585.84
2022-08-18T20:38:29.199Z,99588.56
2022-08-18T20:40:59.775Z,99595.16
2022-08-18T20:43:32.231Z,99584.25
2022-08-18T20:46:23.692Z,99589.69
2022-08-18T20:49:10.198Z,99597.19
2022-08-18T20:51:52.375Z,99595.47
2022-08-18T20:54:34.619Z,99606.69
2022-08-18T20:57:10.021Z,99606.91
2022-08-18T20:59:45.382Z,99613.81
2022-08-18T21:02:28.259Z,99620.91
2022-08-18T21:05:00.235Z,99624.19
2022-08-18T21:07:36.271Z,99627.94
2022-08-18T21:10:13.799Z,99635.28
2022-08-18T21:12:52.494Z,99641.31
2022-08-18T21:15:24.409Z,99639.84
2022-08-18T21:18:01.571Z,99645.34
2022-08-18T21:20:31.470Z,99647.25
2022-08-18T21:23:05.790Z,99649.97
2022-08-18T21:25:34.511Z,99656.44
2022-08-18T21:28:07.001Z,99654.31
2022-08-18T21:30:35.451Z,99664.66
2022-08-18T21:33:20.051Z,99666.34
2022-08-18T21:35:48.359Z,99673.03
2022-08-18T21:38:16.581Z,99672.72
2022-08-18T21:40:49.276Z,99667.41
2022-08-18T21:43:38.054Z,99673.59
2022-08-18T21:46:06.301Z,99682.34
2022-08-18T21:48:36.231Z,99681.50
2022-08-18T21:51:06.472Z,99683.38
2022-08-18T21:53:38.347Z,99691.63
2022-08-18T21:56:06.766Z,99697.66
2022-08-18T21:58:42.308Z,99688.88
2022-08-18T22:01:24.818Z,99692.53
2022-08-18T22:03:56.104Z,99700.88
2022-08-18T22:06:31.481Z,99702.47
2022-08-18T22:09:24.421Z,99707.63
2022-08-18T22:12:46.011Z,99722.44
2022-08-18T22:15:18.706Z,99721.78
2022-08-18T22:17:57.902Z,99721.19
2022-08-18T22:20:48.350Z,99722.47
2022-08-18T22:23:44.411Z,99723.69
2022-08-18T22:26:18.480Z,99722.22
2022-08-18T22:29:03.862Z,99733.22
2022-08-18T22:31:33.929Z,99737.22
2022-08-18T22:34:05.179Z,99740.66
2022-08-18T22:36:37.346Z,99732.97
2022-08-18T22:39:09.596Z,99740.34
2022-08-18T22:41:38.439Z,99740.22
2022-08-18T22:44:08.651Z,99738.03
2022-08-18T22:46:36.967Z,99740.41
2022-08-18T22:49:05.478Z,99741.44
2022-08-18T22:51:37.037Z,99741.09
2022-08-18T22:54:08.246Z,99735.94
2022-08-18T22:56:37.873Z,99738.31
2022-08-18T22:59:15.612Z,99731.41
2022-08-18T23:01:46.256Z,99733.81
2022-08-18T23:04:16.351Z,99736.88
2022-08-18T23:06:51.427Z,99730.59
2022-08-18T23:09:21.935Z,99734.38
2022-08-18T23:11:50.246Z,99741.47
2022-08-18T23:14:20.116Z,99728.75
2022-08-18T23:16:48.295Z,99723.22
2022-08-18T23:19:18.017Z,99725.06
2022-08-18T23:21:46.985Z,99705.41
2022-08-18T23:24:16.914Z,99715.06
2022-08-18T23:26:45.185Z,99709.31
2022-08-18T23:29:14.425Z,99709.47
2022-08-18T23:31:45.351Z,99702.38
2022-08-18T23:34:17.402Z,99699.31
2022-08-18T23:36:46.502Z,99697.94
2022-08-18T23:39:15.091Z,99706.25
2022-08-18T23:41:43.474Z,99697.25
2022-08-18T23:44:14.921Z,99690.66
2022-08-18T23:46:45.102Z,99693.72
2022-08-18T23:49:15.069Z,99699.69
2022-08-18T23:51:46.580Z,99694.63
2022-08-18T23:54:18.076Z,99700.72
2022-08-18T23:56:47.066Z,99695.28
2022-08-18T23:59:17.219Z,99690.22
